Time;durP1;ratioP1;P1;durP2;ratioP2;P2;SDS_P1;SDS_P2;PMS_P1;PMS_P2;Temp;Humidity;BMP_temperature;BMP_pressure;BME280_temperature;BME280_humidity;BME280_pressure;Samples;Min_cycle;Max_cycle;Signal;HPM_P1;HPM_P2
2024/03/05 00:01:46;;;;;;;30.00;22.40;;;;;;;11.33;73.03;98259.60;232248;198;154838;-56
2024/03/05 00:06:50;;;;;;;31.40;23.30;;;;;;;11.41;73.06;98259.30;232104;201;137857;-57
2024/03/05 00:11:53;;;;;;;30.90;23.30;;;;;;;11.39;72.84;98265.71;232255;202;139221;-57
2024/03/05 00:16:57;;;;;;;29.60;22.30;;;;;;;11.29;73.00;98265.74;232257;204;153022;-58
2024/03/05 00:22:00;;;;;;;30.90;21.20;;;;;;;11.20;73.43;98259.92;232021;198;137806;-58
2024/03/05 00:27:03;;;;;;;27.20;19.80;;;;;;;11.14;73.82;98252.04;232250;205;138577;-58
2024/03/05 00:32:07;;;;;;;28.20;21.80;;;;;;;11.12;74.07;98254.10;232260;198;153805;-56
2024/03/05 00:37:10;;;;;;;29.40;21.90;;;;;;;11.17;74.12;98254.48;232156;201;139168;-58
2024/03/05 00:42:13;;;;;;;28.30;21.10;;;;;;;11.18;74.02;98254.37;232256;201;139089;-58
2024/03/05 00:47:18;;;;;;;30.80;22.70;;;;;;;11.15;74.08;98251.44;232190;197;154450;-58
2024/03/05 00:52:21;;;;;;;33.10;23.20;;;;;;;11.10;74.08;98253.19;232041;198;139026;-57
2024/03/05 00:57:24;;;;;;;31.80;23.50;;;;;;;11.06;74.09;98250.33;231843;197;139644;-57
2024/03/05 01:02:28;;;;;;;30.70;23.50;;;;;;;11.00;74.27;98244.77;232031;198;153674;-58
2024/03/05 01:07:31;;;;;;;33.00;22.40;;;;;;;10.95;74.43;98243.40;231772;201;138618;-59
2024/03/05 01:12:34;;;;;;;33.40;23.40;;;;;;;10.93;74.45;98238.02;232022;199;138766;-58
2024/03/05 01:17:38;;;;;;;32.60;24.20;;;;;;;10.98;74.51;98228.19;232169;205;153975;-57
2024/03/05 01:22:42;;;;;;;34.20;25.60;;;;;;;11.04;74.41;98248.54;232191;198;137458;-57
2024/03/05 01:27:46;;;;;;;36.10;25.80;;;;;;;11.01;74.51;98258.91;232210;205;141507;-57
2024/03/05 01:32:51;;;;;;;37.90;27.10;;;;;;;11.03;74.47;98267.06;232202;205;154022;-58
2024/03/05 01:37:54;;;;;;;37.90;26.80;;;;;;;11.01;74.57;98272.72;232193;205;138202;-58
2024/03/05 01:42:57;;;;;;;40.50;27.60;;;;;;;10.98;74.76;98277.52;232241;197;138444;-57
2024/03/05 01:48:01;;;;;;;37.40;26.40;;;;;;;10.96;74.90;98278.95;231043;205;155176;-59
2024/03/05 01:53:09;;;;;;;36.70;25.50;;;;;;;10.96;74.96;98278.04;232058;197;138809;-58
2024/03/05 01:58:17;;;;;;;37.20;27.70;;;;;;;10.99;74.94;98277.68;232078;202;138794;-56
2024/03/05 02:03:20;;;;;;;37.30;26.90;;;;;;;10.97;74.91;98275.48;232192;201;153142;-58
2024/03/05 02:08:25;;;;;;;39.10;28.40;;;;;;;10.96;74.89;98273.10;232133;205;138585;-56
2024/03/05 02:13:28;;;;;;;39.00;27.90;;;;;;;10.95;74.83;98275.81;232202;198;138289;-58
2024/03/05 02:18:32;;;;;;;41.30;28.90;;;;;;;10.93;74.91;98275.98;232145;204;153250;-56
2024/03/05 02:23:35;;;;;;;43.30;28.20;;;;;;;10.93;74.98;98278.29;232259;205;138499;-56
2024/03/05 02:28:39;;;;;;;38.00;25.80;;;;;;;10.91;75.06;98275.58;232257;201;138389;-57
2024/03/05 02:33:46;;;;;;;38.10;25.60;;;;;;;10.89;75.28;98273.59;232218;198;154351;-58
2024/03/05 02:38:52;;;;;;;39.60;28.00;;;;;;;10.93;75.22;98267.14;232155;197;139048;-57
2024/03/05 02:43:56;;;;;;;36.80;26.80;;;;;;;10.96;75.18;98276.09;232182;197;138676;-58
2024/03/05 02:48:59;;;;;;;40.80;28.10;;;;;;;10.97;75.16;98282.45;232204;205;153149;-58
2024/03/05 02:54:03;;;;;;;37.50;27.40;;;;;;;10.96;75.23;98288.01;232160;205;137364;-58
2024/03/05 02:59:07;;;;;;;37.80;26.70;;;;;;;10.94;75.21;98291.17;232194;202;138368;-58
2024/03/05 03:04:10;;;;;;;37.80;27.90;;;;;;;10.92;75.31;98288.85;232105;198;153189;-57
2024/03/05 03:09:13;;;;;;;36.70;25.80;;;;;;;10.88;75.38;98298.52;232171;201;137614;-58
2024/03/05 03:14:17;;;;;;;34.20;25.40;;;;;;;10.86;75.54;98302.59;232145;197;139375;-57
2024/03/05 03:19:21;;;;;;;40.20;27.40;;;;;;;10.89;75.50;98306.59;232117;198;153292;-58
2024/03/05 03:24:24;;;;;;;34.30;25.10;;;;;;;10.93;75.44;98311.48;232030;198;137818;-59
2024/03/05 03:29:28;;;;;;;30.10;22.10;;;;;;;10.95;75.06;98310.78;232216;202;138030;-57
2024/03/05 03:34:31;;;;;;;28.40;20.00;;;;;;;10.91;74.47;98310.54;232267;205;153071;-58
2024/03/05 03:39:35;;;;;;;28.00;18.20;;;;;;;10.86;74.36;98316.23;232233;201;140629;-57
2024/03/05 03:44:39;;;;;;;28.00;18.30;;;;;;;10.79;74.11;98319.49;232284;198;137623;-57
2024/03/05 03:49:48;;;;;;;30.90;19.90;;;;;;;10.71;74.09;98322.75;232296;198;153797;-57
2024/03/05 03:54:52;;;;;;;28.30;18.00;;;;;;;10.62;74.13;98333.15;232341;201;138266;-57
2024/03/05 03:59:56;;;;;;;27.60;18.10;;;;;;;10.58;74.10;98338.39;232349;202;139009;-58
2024/03/05 04:04:59;;;;;;;29.00;17.10;;;;;;;10.55;74.00;98337.52;232142;198;154100;-57
2024/03/05 04:10:06;;;;;;;30.80;18.90;;;;;;;10.46;73.80;98337.52;232330;205;138284;-58
2024/03/05 04:15:09;;;;;;;32.70;18.80;;;;;;;10.42;73.85;98342.06;232116;205;138820;-58
2024/03/05 04:20:14;;;;;;;27.70;17.90;;;;;;;10.40;73.91;98344.48;232209;204;154083;-57
2024/03/05 04:25:24;;;;;;;;;;;;;;;10.38;74.00;98344.06;232290;204;138343;-58
2024/03/05 04:30:28;;;;;;;34.40;19.60;;;;;;;10.34;74.11;98345.79;232365;197;138531;-58
2024/03/05 04:35:32;;;;;;;27.60;17.40;;;;;;;10.31;74.10;98349.91;232304;201;153981;-57
2024/03/05 04:40:35;;;;;;;28.50;17.10;;;;;;;10.31;74.36;98358.45;232213;204;139060;-57
2024/03/05 04:45:38;;;;;;;28.40;17.30;;;;;;;10.35;74.25;98365.27;232167;201;139145;-56
2024/03/05 04:50:42;;;;;;;29.30;17.60;;;;;;;10.40;74.12;98360.57;232335;198;153353;-57
2024/03/05 04:55:45;;;;;;;23.90;15.90;;;;;;;10.40;73.94;98363.40;232190;198;137399;-57
2024/03/05 05:00:49;;;;;;;22.50;14.20;;;;;;;10.33;73.69;98371.26;232152;197;137496;-56
2024/03/05 05:05:55;;;;;;;20.30;13.60;;;;;;;10.30;73.54;98372.54;232081;202;154240;-54
2024/03/05 05:11:01;;;;;;;19.30;12.20;;;;;;;10.22;73.36;98376.45;232203;202;138456;-55
2024/03/05 05:16:05;;;;;;;16.50;10.50;;;;;;;10.17;73.38;98380.88;232207;198;141423;-57
2024/03/05 05:21:08;;;;;;;17.00;10.50;;;;;;;10.13;73.46;98382.52;232188;197;155003;-57
2024/03/05 05:26:12;;;;;;;15.30;10.80;;;;;;;10.13;73.62;98395.48;232128;205;138559;-56
2024/03/05 05:31:29;;;;;;;484.50;379.50;;;;;;;10.22;74.34;98397.36;232248;201;137780;-56
2024/03/05 05:36:32;;;;;;;53.00;39.10;;;;;;;10.45;74.43;98395.94;232202;205;153719;-58
2024/03/05 05:41:36;;;;;;;167.90;125.70;;;;;;;10.47;74.07;98400.42;232299;205;138909;-57
2024/03/05 05:46:39;;;;;;;19.20;13.90;;;;;;;10.48;73.89;98406.36;232293;201;138039;-57
2024/03/05 05:51:43;;;;;;;17.80;12.60;;;;;;;10.46;73.81;98413.08;232467;205;153297;-56
2024/03/05 05:56:47;;;;;;;442.70;303.50;;;;;;;10.43;73.98;98414.66;232146;199;137825;-57
2024/03/05 06:01:50;;;;;;;15.50;10.70;;;;;;;10.43;74.07;98422.83;232195;201;138075;-57
2024/03/05 06:06:54;;;;;;;14.60;8.90;;;;;;;10.42;73.63;98423.73;232248;198;153211;-57
2024/03/05 06:11:57;;;;;;;12.70;8.40;;;;;;;10.41;73.74;98432.15;232233;198;138751;-57
2024/03/05 06:17:00;;;;;;;10.60;8.40;;;;;;;10.41;73.41;98434.50;232079;198;254154;-57
2024/03/05 06:22:04;;;;;;;17.20;10.50;;;;;;;10.37;73.42;98442.71;232314;205;153092;-57
2024/03/05 06:27:07;;;;;;;13.20;8.70;;;;;;;10.36;73.30;98447.96;232208;205;138149;-58
2024/03/05 06:32:10;;;;;;;12.00;8.60;;;;;;;10.30;73.19;98462.77;232143;199;137967;-58
2024/03/05 06:37:14;;;;;;;9.70;7.60;;;;;;;10.21;72.92;98473.27;232155;202;154297;-58
2024/03/05 06:42:18;;;;;;;21.70;14.00;;;;;;;10.18;73.03;98488.94;232229;204;138682;-57
2024/03/05 06:47:27;;;;;;;11.90;8.10;;;;;;;10.10;72.42;98498.81;231594;202;138676;-57
2024/03/05 06:57:52;;;;;;;11.70;8.70;;;;;;;9.95;72.48;98508.92;232238;202;137603;-57
2024/03/05 07:02:55;;;;;;;11.40;8.60;;;;;;;9.93;72.75;98510.84;232051;201;138490;-57
2024/03/05 07:08:02;;;;;;;10.20;8.20;;;;;;;10.00;72.99;98512.88;232176;198;153728;-58
2024/03/05 07:13:08;;;;;;;12.60;9.10;;;;;;;10.06;73.10;98512.08;232134;202;138475;-57
2024/03/05 07:18:14;;;;;;;12.60;9.20;;;;;;;10.00;73.21;98516.71;232313;205;141060;-57
2024/03/05 07:23:17;;;;;;;14.00;9.00;;;;;;;9.95;73.42;98523.65;231052;205;153267;-57
2024/03/05 07:28:20;;;;;;;12.10;9.00;;;;;;;9.90;73.54;98534.98;232200;201;138287;-58
2024/03/05 07:33:24;;;;;;;11.10;7.80;;;;;;;9.86;73.64;98544.59;231347;198;137905;-58
2024/03/05 07:38:27;;;;;;;10.80;7.60;;;;;;;9.89;73.32;98553.13;232229;197;153158;-56
2024/03/05 07:43:30;;;;;;;72.30;51.50;;;;;;;9.95;73.36;98565.80;232155;198;137740;-57
2024/03/05 07:48:33;;;;;;;11.50;8.50;;;;;;;10.05;73.57;98568.13;232191;201;141188;-52
2024/03/05 07:53:36;;;;;;;10.10;7.70;;;;;;;10.10;72.77;98572.59;232154;201;153392;-56
2024/03/05 07:58:43;;;;;;;10.40;7.30;;;;;;;10.05;72.46;98576.16;232142;205;138014;-55
2024/03/05 08:03:47;;;;;;;8.70;5.80;;;;;;;10.01;72.53;98571.61;232192;205;138346;-55
2024/03/05 08:08:50;;;;;;;8.10;5.80;;;;;;;9.98;72.68;98571.49;232195;198;154357;-53
2024/03/05 08:13:53;;;;;;;6.40;4.80;;;;;;;9.97;72.98;98573.83;231986;197;138009;-55
2024/03/05 08:18:57;;;;;;;27.00;19.70;;;;;;;10.04;73.85;98574.92;232034;201;138881;-55
2024/03/05 08:24:02;;;;;;;6.10;4.10;;;;;;;10.24;73.06;98571.70;232216;204;155262;-55
2024/03/05 08:29:05;;;;;;;4.80;4.00;;;;;;;10.35;72.83;98580.33;232231;204;138780;-55
2024/03/05 08:34:09;;;;;;;317.80;235.10;;;;;;;10.43;73.01;98582.44;231522;197;138776;-53
2024/03/05 08:39:18;;;;;;;12.10;7.80;;;;;;;10.56;72.70;98587.58;232088;198;153859;-55
2024/03/05 08:44:21;;;;;;;8.30;4.20;;;;;;;10.55;72.21;98594.53;231931;197;138682;-53
2024/03/05 08:49:25;;;;;;;6.40;4.00;;;;;;;10.51;71.86;98604.22;232107;201;138476;-54
2024/03/05 08:54:31;;;;;;;5.00;3.90;;;;;;;10.49;71.50;98612.52;232415;208;154400;-54
2024/03/05 08:59:34;;;;;;;7.50;4.40;;;;;;;10.41;71.20;98621.56;232225;198;137351;-54
2024/03/05 09:04:37;;;;;;;6.30;5.00;;;;;;;10.38;71.39;98624.58;232246;202;138608;-53
2024/03/05 09:09:41;;;;;;;8.30;4.90;;;;;;;10.35;71.35;98631.75;232218;197;153280;-52
2024/03/05 09:14:45;;;;;;;6.60;4.60;;;;;;;10.35;71.77;98638.11;232042;205;138691;-50
2024/03/05 09:19:49;;;;;;;7.80;5.80;;;;;;;10.43;71.91;98629.42;232041;197;138396;-55
2024/03/05 09:24:52;;;;;;;7.60;6.30;;;;;;;10.53;71.75;98636.70;232172;197;153153;-57
2024/03/05 09:29:55;;;;;;;8.90;6.50;;;;;;;10.61;71.26;98643.60;232039;198;137158;-55
2024/03/05 09:34:59;;;;;;;25.30;19.40;;;;;;;10.73;71.89;98650.79;231604;198;138704;-55
2024/03/05 09:40:05;;;;;;;11.00;7.30;;;;;;;10.77;70.60;98659.23;231911;197;154247;-56
2024/03/05 09:45:14;;;;;;;10.20;7.00;;;;;;;10.69;70.26;98664.73;231767;202;138747;-55
2024/03/05 09:50:18;;;;;;;9.20;7.10;;;;;;;10.64;70.36;98669.33;232118;205;138049;-56
2024/03/05 09:55:22;;;;;;;10.60;7.10;;;;;;;10.58;70.33;98675.74;231923;197;153118;-56
2024/03/05 10:00:27;;;;;;;10.10;7.90;;;;;;;10.54;70.19;98677.27;232120;197;140974;-56
2024/03/05 10:05:30;;;;;;;8.70;6.50;;;;;;;10.51;70.51;98681.03;232191;205;142104;-55
2024/03/05 10:10:34;;;;;;;9.40;7.60;;;;;;;10.52;70.41;98684.55;232217;197;154180;-57
2024/03/05 10:15:42;;;;;;;19.00;13.00;;;;;;;11.33;79.35;98688.78;232215;197;138432;-54
2024/03/05 10:20:46;;;;;;;9.30;7.70;;;;;;;11.97;69.09;98689.61;232201;198;138227;-55
2024/03/05 10:25:49;;;;;;;10.50;8.10;;;;;;;11.61;68.10;98691.98;232188;198;153030;-54
2024/03/05 10:30:58;;;;;;;64.60;44.50;;;;;;;11.35;67.75;98697.75;232188;202;137741;-54
2024/03/05 10:36:01;;;;;;;12.60;9.60;;;;;;;11.08;67.66;98696.96;231998;205;138568;-55
2024/03/05 10:41:07;;;;;;;19.00;12.70;;;;;;;10.89;68.05;98698.13;232145;201;154099;-56
2024/03/05 10:46:11;;;;;;;14.50;9.90;;;;;;;10.80;67.99;98701.38;232180;197;138648;-54
2024/03/05 10:51:18;;;;;;;14.30;9.40;;;;;;;10.66;68.05;98708.40;232230;201;138457;-55
2024/03/05 10:56:21;;;;;;;15.60;10.00;;;;;;;10.54;68.27;98704.10;232179;198;153268;-56
2024/03/05 11:01:39;;;;;;;14.80;9.70;;;;;;;10.39;68.40;98702.38;232197;201;138640;-57
2024/03/05 11:06:45;;;;;;;15.30;10.10;;;;;;;10.35;68.59;98698.23;232205;204;138559;-57
2024/03/05 11:11:58;;;;;;;17.10;11.30;;;;;;;10.36;69.28;98702.23;232059;198;153455;-54
2024/03/05 11:17:09;;;;;;;16.60;11.60;;;;;;;10.43;69.62;98703.75;232037;198;141669;-55
2024/03/05 11:22:26;;;;;;;19.90;13.50;;;;;;;10.49;69.54;98703.50;232096;198;138561;-57
2024/03/05 11:27:34;;;;;;;475.20;388.10;;;;;;;10.55;69.86;98701.90;232072;202;153945;-53
2024/03/05 11:32:39;;;;;;;22.40;15.70;;;;;;;10.59;69.53;98707.23;232018;199;138257;-56
2024/03/05 11:37:58;;;;;;;19.30;13.60;;;;;;;10.59;69.22;98706.73;232215;198;138552;-57
2024/03/05 11:43:04;;;;;;;20.30;14.20;;;;;;;10.60;68.85;98710.42;231979;198;155263;-57
2024/03/05 11:48:09;;;;;;;22.20;14.40;;;;;;;10.49;68.24;98714.53;232067;198;138359;-56
2024/03/05 11:53:13;;;;;;;20.60;14.70;;;;;;;10.42;68.27;98716.92;232291;204;138236;-54
2024/03/05 11:58:23;;;;;;;20.80;14.10;;;;;;;10.44;68.44;98716.11;232311;205;153587;-59
2024/03/05 12:03:27;;;;;;;19.90;14.10;;;;;;;10.46;68.47;98713.82;232091;205;138469;-57
2024/03/05 12:08:33;;;;;;;21.40;13.80;;;;;;;10.63;68.79;98712.70;232100;201;139412;-59
2024/03/05 12:13:36;;;;;;;19.10;14.60;;;;;;;10.83;68.19;98719.80;231648;197;153437;-59
2024/03/05 12:18:40;;;;;;;21.70;15.10;;;;;;;10.87;66.97;98719.18;231650;198;138660;-58
2024/03/05 12:23:44;;;;;;;24.80;15.70;;;;;;;10.87;66.94;98720.61;232297;202;138279;-57
2024/03/05 12:28:49;;;;;;;24.00;15.60;;;;;;;10.90;66.67;98723.80;232249;201;153828;-58
2024/03/05 12:33:52;;;;;;;21.60;15.30;;;;;;;10.83;66.75;98729.08;232018;198;138666;-57
2024/03/05 12:38:58;;;;;;;21.10;16.00;;;;;;;10.86;67.21;98727.10;232177;205;138418;-58
2024/03/05 12:44:03;;;;;;;25.50;16.50;;;;;;;10.89;66.88;98727.23;232009;198;153155;-56
2024/03/05 12:49:07;;;;;;;23.80;14.90;;;;;;;10.85;66.31;98729.80;232098;197;138382;-58
2024/03/05 12:54:11;;;;;;;23.80;16.10;;;;;;;10.84;66.23;98730.27;232209;202;137952;-58
2024/03/05 12:59:19;;;;;;;58.70;47.50;;;;;;;10.84;66.03;98731.85;232060;204;155476;-57
2024/03/05 13:04:23;;;;;;;24.00;16.60;;;;;;;10.86;66.40;98727.99;232147;198;139283;-59
2024/03/05 13:09:27;;;;;;;53.70;38.10;;;;;;;10.84;66.33;98732.90;231814;198;138345;-58
2024/03/05 13:14:31;;;;;;;27.70;18.50;;;;;;;10.92;67.60;98737.50;231987;198;153274;-58
2024/03/05 13:19:34;;;;;;;24.90;17.10;;;;;;;11.00;66.87;98744.04;232152;202;138938;-58
2024/03/05 13:24:38;;;;;;;27.40;18.00;;;;;;;11.04;66.50;98743.23;232095;198;138864;-57
2024/03/05 13:29:41;;;;;;;24.70;17.80;;;;;;;11.10;66.12;98752.08;232157;198;153261;-56
2024/03/05 13:34:44;;;;;;;29.10;18.70;;;;;;;11.05;65.48;98755.21;232180;198;138123;-56
2024/03/05 13:39:47;;;;;;;30.20;19.90;;;;;;;11.02;66.00;98753.32;232236;201;142001;-57
2024/03/05 13:44:51;;;;;;;28.80;19.10;;;;;;;11.02;66.38;98753.85;232130;201;152987;-55
2024/03/05 13:49:56;;;;;;;29.60;20.20;;;;;;;11.02;66.58;98757.39;232088;198;139642;-58
2024/03/05 13:55:01;;;;;;;55.30;38.40;;;;;;;11.01;66.76;98762.46;232231;198;139200;-57
2024/03/05 14:00:09;;;;;;;34.00;21.30;;;;;;;11.06;67.02;98768.52;232184;197;154064;-57
2024/03/05 14:05:15;;;;;;;33.20;20.60;;;;;;;11.04;66.69;98778.06;232209;205;141769;-57
2024/03/05 14:10:19;;;;;;;31.80;20.90;;;;;;;11.02;66.55;98780.84;232139;197;139154;-56
2024/03/05 14:15:22;;;;;;;45.50;29.50;;;;;;;11.02;66.85;98787.08;232003;199;152998;-56
2024/03/05 14:20:27;;;;;;;28.80;19.80;;;;;;;11.02;66.31;98790.61;232093;198;138245;-56
2024/03/05 14:25:32;;;;;;;29.80;20.30;;;;;;;11.00;66.39;98796.61;232109;198;138191;-57
2024/03/05 14:30:35;;;;;;;30.40;19.50;;;;;;;10.95;66.18;98804.39;232265;197;153856;-56
2024/03/05 14:35:38;;;;;;;28.70;19.50;;;;;;;10.90;66.03;98810.21;232001;198;138541;-57
2024/03/05 14:40:45;;;;;;;31.50;21.00;;;;;;;10.87;66.14;98812.90;232099;198;137721;-56
2024/03/05 14:45:49;;;;;;;47.50;30.90;;;;;;;10.86;67.03;98823.61;232234;205;153894;-57
2024/03/05 14:50:53;;;;;;;37.40;22.50;;;;;;;10.94;67.26;98831.64;232030;202;138721;-58
2024/03/05 14:55:56;;;;;;;34.90;23.10;;;;;;;10.96;66.96;98832.92;232217;205;137773;-56
2024/03/05 15:00:59;;;;;;;32.70;22.90;;;;;;;10.98;66.89;98838.81;231929;201;154389;-56
2024/03/05 15:06:04;;;;;;;36.10;24.50;;;;;;;10.96;66.69;98848.36;231939;202;139414;-57
2024/03/05 15:11:07;;;;;;;207.90;150.20;;;;;;;10.96;67.25;98856.72;231947;205;139538;-56
2024/03/05 15:16:11;;;;;;;37.70;25.10;;;;;;;11.00;67.09;98863.03;232036;198;153802;-56
2024/03/05 15:21:14;;;;;;;39.70;24.10;;;;;;;10.94;66.65;98865.89;232152;198;138319;-56
2024/03/05 15:26:18;;;;;;;32.20;21.90;;;;;;;10.86;66.62;98873.29;231978;202;138891;-57
2024/03/05 15:31:22;;;;;;;31.50;21.40;;;;;;;10.80;66.42;98882.59;232140;202;153216;-56
2024/03/05 15:36:29;;;;;;;32.40;20.80;;;;;;;10.73;66.34;98894.06;232173;202;139138;-55
2024/03/05 15:41:33;;;;;;;33.20;21.30;;;;;;;10.64;66.39;98902.09;232227;198;138437;-56
2024/03/05 15:46:36;;;;;;;33.90;22.50;;;;;;;10.59;66.43;98908.46;232042;205;153391;-56
2024/03/05 15:51:40;;;;;;;40.50;25.50;;;;;;;10.56;66.92;98913.64;232037;201;138371;-58
2024/03/05 15:56:56;;;;;;;35.50;23.80;;;;;;;10.51;66.65;98916.58;232260;201;138345;-57
2024/03/05 16:02:01;;;;;;;33.60;21.60;;;;;;;10.48;66.46;98926.17;232221;197;155202;-55
2024/03/05 16:07:04;;;;;;;33.10;21.70;;;;;;;10.41;66.44;98930.88;231967;198;137489;-57
2024/03/05 16:12:08;;;;;;;32.90;22.50;;;;;;;10.36;66.35;98935.63;232225;197;137349;-57
2024/03/05 16:17:17;;;;;;;32.10;21.60;;;;;;;10.31;66.39;98942.31;232173;204;155652;-56
2024/03/05 16:22:20;;;;;;;31.30;20.30;;;;;;;10.29;66.57;98944.92;232231;202;138991;-57
2024/03/05 16:27:24;;;;;;;35.10;21.90;;;;;;;10.32;66.43;98951.52;232080;198;139327;-57
2024/03/05 16:32:27;;;;;;;32.30;20.50;;;;;;;10.34;66.15;98954.92;232230;198;155733;-56
2024/03/05 16:37:30;;;;;;;31.90;20.90;;;;;;;10.32;65.80;98952.34;232144;202;137993;-56
2024/03/05 16:42:33;;;;;;;32.30;20.80;;;;;;;10.31;65.67;98957.58;232149;201;142834;-55
2024/03/05 16:47:42;;;;;;;35.60;22.80;;;;;;;10.31;65.89;98961.49;232159;198;153037;-57
2024/03/05 16:52:48;;;;;;;39.50;23.70;;;;;;;10.27;66.12;98967.58;232168;197;137984;-56
2024/03/05 16:57:52;;;;;;;36.70;22.80;;;;;;;10.20;66.47;98975.07;231924;198;138704;-57
2024/03/05 17:03:00;;;;;;;33.80;23.10;;;;;;;10.16;66.60;98978.69;232119;197;154464;-56
2024/03/05 17:08:10;;;;;;;32.90;22.10;;;;;;;10.12;66.73;98986.75;232038;198;137727;-56
2024/03/05 17:13:25;;;;;;;41.30;23.60;;;;;;;10.06;66.87;98996.10;232226;201;137843;-57
2024/03/05 17:18:31;;;;;;;32.80;22.20;;;;;;;10.02;66.91;98996.72;232045;205;152925;-57
2024/03/05 17:23:40;;;;;;;35.10;22.60;;;;;;;9.97;67.09;99002.35;232062;198;139069;-57
2024/03/05 17:28:44;;;;;;;35.00;23.60;;;;;;;9.96;67.05;99006.48;232069;198;138358;-57
2024/03/05 17:33:47;;;;;;;35.10;22.60;;;;;;;9.95;67.07;99016.81;232250;197;153886;-56
2024/03/05 17:38:51;;;;;;;33.40;21.70;;;;;;;9.89;67.17;99020.38;232060;199;139724;-57
2024/03/05 17:43:54;;;;;;;33.20;22.50;;;;;;;9.89;67.25;99021.44;232049;198;138840;-57
2024/03/05 17:48:58;;;;;;;32.90;21.80;;;;;;;9.91;67.21;99025.73;232184;198;153612;-54
2024/03/05 17:54:02;;;;;;;37.50;22.70;;;;;;;9.94;67.22;99025.17;232008;198;138352;-57
2024/03/05 17:59:10;;;;;;;31.90;21.10;;;;;;;9.97;67.00;99033.04;231732;202;138972;-57
2024/03/05 18:04:16;;;;;;;30.60;21.40;;;;;;;9.94;66.97;99030.48;232328;205;152957;-56
2024/03/05 18:09:19;;;;;;;30.30;19.90;;;;;;;9.94;66.70;99037.05;232078;198;138998;-53
2024/03/05 18:14:22;;;;;;;29.40;20.60;;;;;;;9.90;66.58;99044.05;232254;201;138362;-55
2024/03/05 18:19:25;;;;;;;31.50;21.70;;;;;;;9.86;66.82;99051.41;232170;197;153245;-57
2024/03/05 18:24:28;;;;;;;33.70;22.10;;;;;;;9.82;66.86;99059.26;232211;198;138159;-55
2024/03/05 18:29:32;;;;;;;32.80;21.50;;;;;;;9.78;66.80;99061.23;231991;201;140045;-57
2024/03/05 18:34:38;;;;;;;386.20;274.90;;;;;;;9.75;67.10;99064.45;232326;201;153180;-56
2024/03/05 18:39:41;;;;;;;49.70;29.80;;;;;;;9.78;67.32;99067.13;232153;197;137919;-57
2024/03/05 18:44:44;;;;;;;258.80;211.40;;;;;;;9.83;68.66;99070.20;232188;197;138543;-58
2024/03/05 18:49:47;;;;;;;31.20;20.90;;;;;;;9.89;67.89;99070.33;232161;197;153814;-56
2024/03/05 18:54:52;;;;;;;28.60;20.80;;;;;;;9.93;66.76;99081.09;232174;198;138589;-57
2024/03/05 18:59:56;;;;;;;27.70;20.60;;;;;;;9.90;66.45;99077.23;231989;205;137446;-57
2024/03/05 19:04:59;;;;;;;30.60;20.80;;;;;;;9.88;66.37;99086.18;232126;198;152976;-56
2024/03/05 19:10:06;;;;;;;29.40;20.50;;;;;;;9.82;66.26;99086.52;232193;201;137978;-58
2024/03/05 19:15:13;;;;;;;28.60;20.10;;;;;;;9.75;66.21;99089.79;232202;205;138074;-57
2024/03/05 19:20:16;;;;;;;33.40;20.40;;;;;;;9.67;66.41;99094.78;232098;205;153401;-57
2024/03/05 19:25:20;;;;;;;28.80;21.00;;;;;;;9.63;66.58;99098.96;231944;197;138600;-55
2024/03/05 19:30:24;;;;;;;34.10;21.10;;;;;;;9.57;66.55;99098.61;232219;198;138930;-57
2024/03/05 19:35:27;;;;;;;29.00;21.30;;;;;;;9.51;66.75;99096.10;232138;198;153123;-57
2024/03/05 19:40:30;;;;;;;31.70;21.40;;;;;;;9.47;67.00;99095.77;232129;198;138233;-57
2024/03/05 19:45:34;;;;;;;30.70;21.10;;;;;;;9.42;67.11;99093.75;232031;198;138540;-58
2024/03/05 19:50:37;;;;;;;33.60;23.60;;;;;;;9.40;67.21;99087.36;232194;205;153384;-56
2024/03/05 19:55:41;;;;;;;35.90;22.50;;;;;;;9.41;67.18;99091.20;231956;198;138881;-57
2024/03/05 20:00:44;;;;;;;300.80;226.20;;;;;;;9.39;67.92;99094.66;232270;201;139851;-57
2024/03/05 20:05:47;;;;;;;30.20;19.60;;;;;;;9.46;67.87;99091.39;232207;205;250207;-55
2024/03/05 20:10:54;;;;;;;26.40;18.50;;;;;;;9.45;66.49;99090.06;232088;199;138393;-57
2024/03/05 20:15:57;;;;;;;35.20;20.40;;;;;;;9.47;67.62;99081.77;232069;197;138284;-56
2024/03/05 20:21:01;;;;;;;63.00;41.90;;;;;;;9.92;69.29;99084.70;232262;201;154047;-55
2024/03/05 20:26:07;;;;;;;33.90;21.10;;;;;;;10.05;66.46;99088.90;232054;198;137556;-56
2024/03/05 20:31:11;;;;;;;45.40;29.70;;;;;;;9.79;65.45;99088.31;232070;198;138733;-57
2024/03/05 20:36:18;;;;;;;29.80;20.60;;;;;;;9.65;65.74;99088.95;232211;197;153126;-58
2024/03/05 20:41:21;;;;;;;31.30;20.90;;;;;;;9.45;65.98;99091.32;232124;205;138667;-58
2024/03/05 20:46:25;;;;;;;34.90;21.60;;;;;;;9.32;65.94;99096.11;232071;197;138147;-57
2024/03/05 20:51:30;;;;;;;36.00;23.10;;;;;;;9.15;65.98;99098.84;232189;201;153392;-57
2024/03/05 20:56:33;;;;;;;35.00;23.80;;;;;;;9.00;66.19;99105.13;232014;204;138153;-59
2024/03/05 21:01:38;;;;;;;37.90;23.90;;;;;;;8.86;66.30;99106.41;231900;199;138070;-58
2024/03/05 21:06:42;;;;;;;36.00;24.80;;;;;;;8.73;66.53;99111.01;231638;201;153773;-59
2024/03/05 21:11:46;;;;;;;35.30;24.20;;;;;;;8.61;66.85;99113.41;231779;202;138646;-57
2024/03/05 21:16:50;;;;;;;39.20;25.50;;;;;;;8.53;66.99;99120.21;232168;197;138992;-58
2024/03/05 21:21:54;;;;;;;41.50;26.50;;;;;;;8.43;67.10;99123.04;232250;198;153352;-58
2024/03/05 21:26:57;;;;;;;41.20;26.90;;;;;;;8.35;67.51;99131.73;232255;202;138234;-58
2024/03/05 21:32:22;;;;;;;36.20;24.30;;;;;;;8.27;67.63;99137.04;232108;201;137531;-56
2024/03/05 21:37:26;;;;;;;41.00;25.00;;;;;;;8.25;67.76;99142.97;232228;198;154024;-58
2024/03/05 21:42:29;;;;;;;37.20;24.50;;;;;;;8.26;67.66;99140.63;232236;198;138694;-58
2024/03/05 21:47:32;;;;;;;38.60;25.00;;;;;;;8.26;67.66;99142.61;232212;205;140471;-58
2024/03/05 21:52:35;;;;;;;41.00;25.70;;;;;;;8.24;67.58;99138.29;231981;198;153241;-57
2024/03/05 21:57:39;;;;;;;40.50;25.10;;;;;;;8.22;67.75;99140.50;231982;202;137688;-58
2024/03/05 22:02:43;;;;;;;43.90;28.40;;;;;;;8.19;67.85;99140.45;232174;201;138342;-56
2024/03/05 22:07:46;;;;;;;38.20;26.10;;;;;;;8.13;67.94;99136.88;232101;197;152978;-57
2024/03/05 22:12:50;;;;;;;41.10;26.50;;;;;;;8.07;67.95;99139.14;231924;198;138520;-57
2024/03/05 22:17:53;;;;;;;40.10;26.60;;;;;;;8.01;68.09;99135.20;232186;202;138587;-58
2024/03/05 22:22:56;;;;;;;44.20;27.80;;;;;;;7.94;67.96;99137.87;232006;197;153236;-57
2024/03/05 22:27:59;;;;;;;45.70;28.50;;;;;;;7.86;67.96;99145.47;232004;197;138008;-56
2024/03/05 22:33:03;;;;;;;39.40;26.80;;;;;;;7.81;68.13;99147.70;232175;198;138299;-57
2024/03/05 22:38:07;;;;;;;42.20;26.80;;;;;;;7.73;68.16;99151.05;232174;198;154888;-52
2024/03/05 22:43:11;;;;;;;40.20;27.20;;;;;;;7.66;68.05;99153.33;231954;197;138300;-52
2024/03/05 22:48:15;;;;;;;45.30;27.10;;;;;;;7.58;68.27;99162.04;232006;202;138579;-54
2024/03/05 22:53:21;;;;;;;42.80;26.10;;;;;;;7.47;68.47;99169.08;232196;205;153095;-56
2024/03/05 22:58:24;;;;;;;;;;;;;;;7.38;68.41;99175.51;232107;205;138244;-54
2024/03/05 23:03:27;;;;;;;46.20;27.60;;;;;;;7.23;68.46;99179.04;232313;205;137210;-56
2024/03/05 23:08:31;;;;;;;43.60;27.70;;;;;;;7.11;68.87;99184.00;232004;198;153138;-53
2024/03/05 23:13:34;;;;;;;44.50;26.80;;;;;;;7.04;69.04;99182.89;232129;197;138809;-53
2024/03/05 23:18:37;;;;;;;45.40;26.60;;;;;;;7.01;69.19;99180.56;231998;205;141920;-55